createdAt,value
2023-02-18T00:01:26.436Z,100408.78
2023-02-18T00:03:53.042Z,100411.34
2023-02-18T00:06:21.658Z,100411.50
2023-02-18T00:08:49.444Z,100414.50
2023-02-18T00:11:17.296Z,100412.34
2023-02-18T00:13:48.521Z,100415.34
2023-02-18T00:16:14.800Z,100433.25
2023-02-18T00:18:41.239Z,100428.69
2023-02-18T00:21:07.924Z,100445.03
2023-02-18T00:23:34.743Z,100438.94
2023-02-18T00:26:07.155Z,100436.66
2023-02-18T00:28:34.257Z,100454.56
2023-02-18T00:31:07.300Z,100446.03
2023-02-18T00:33:34.210Z,100444.03
2023-02-18T00:36:04.980Z,100452.56
2023-02-18T00:38:32.135Z,100453.41
2023-02-18T00:40:59.537Z,100461.81
2023-02-18T00:43:26.780Z,100451.56
2023-02-18T00:45:53.282Z,100447.59
2023-02-18T00:48:20.542Z,100457.84
2023-02-18T00:50:46.814Z,100441.78
2023-02-18T00:53:13.386Z,100449.88
2023-02-18T00:55:43.889Z,100442.34
2023-02-18T00:58:10.852Z,100446.06
2023-02-18T01:00:37.585Z,100454.72
2023-02-18T01:03:06.868Z,100457.00
2023-02-18T01:05:34.247Z,100458.41
2023-02-18T01:08:01.631Z,100455.72
2023-02-18T01:10:29.633Z,100457.72
2023-02-18T01:12:57.081Z,100444.38
2023-02-18T01:15:23.806Z,100447.19
2023-02-18T01:17:51.176Z,100465.22
2023-02-18T01:20:18.900Z,100465.38
2023-02-18T01:22:45.840Z,100459.28
2023-02-18T01:25:12.320Z,100455.72
2023-02-18T01:27:40.356Z,100457.13
2023-02-18T01:30:11.979Z,100453.59
2023-02-18T01:32:38.536Z,100443.06
2023-02-18T01:35:07.507Z,100454.00
2023-02-18T01:37:34.010Z,100459.13
2023-02-18T01:40:00.271Z,100449.03
2023-02-18T01:42:28.872Z,100445.91
2023-02-18T01:45:30.423Z,100440.50
2023-02-18T01:47:57.308Z,100440.50
2023-02-18T01:50:23.870Z,100448.59
2023-02-18T01:52:50.390Z,100445.75
2023-02-18T01:55:16.675Z,100449.88
2023-02-18T01:57:43.254Z,100444.34
2023-02-18T02:00:16.261Z,100455.69
2023-02-18T02:02:47.709Z,100461.94
2023-02-18T02:05:15.671Z,100459.50
2023-02-18T02:07:44.155Z,100448.00
2023-02-18T02:10:12.979Z,100443.31
2023-02-18T02:12:48.655Z,100455.09
2023-02-18T02:15:38.442Z,100450.00
2023-02-18T02:18:23.430Z,100449.13
2023-02-18T02:21:21.890Z,100454.38
2023-02-18T02:24:42.020Z,100458.38
2023-02-18T02:27:17.305Z,100458.50
2023-02-18T02:29:49.348Z,100458.78
2023-02-18T02:32:33.832Z,100449.84
2023-02-18T02:35:18.206Z,100461.63
2023-02-18T02:37:52.425Z,100463.19
2023-02-18T02:40:27.763Z,100460.78
2023-02-18T02:43:01.949Z,100466.44
2023-02-18T02:45:55.559Z,100462.75
2023-02-18T02:48:36.745Z,100469.25
2023-02-18T02:51:10.687Z,100464.44
2023-02-18T02:53:40.540Z,100461.75
2023-02-18T02:56:16.886Z,100477.47
2023-02-18T02:58:45.129Z,100477.06
2023-02-18T03:01:31.900Z,100487.56
2023-02-18T03:04:11.609Z,100486.13
2023-02-18T03:07:11.618Z,100471.09
2023-02-18T03:10:12.186Z,100476.34
2023-02-18T03:13:00.490Z,100488.84
2023-02-18T03:15:45.649Z,100487.69
2023-02-18T03:18:41.619Z,100489.28
2023-02-18T03:21:15.842Z,100484.88
2023-02-18T03:24:02.590Z,100484.59
2023-02-18T03:26:31.106Z,100490.13
2023-02-18T03:29:02.130Z,100489.13
2023-02-18T03:31:32.314Z,100485.16
2023-02-18T03:34:05.883Z,100481.72
2023-02-18T03:36:34.129Z,100490.00
2023-02-18T03:39:06.659Z,100490.97
2023-02-18T03:41:33.411Z,100506.44
2023-02-18T03:44:03.153Z,100504.72
2023-02-18T03:46:30.196Z,100510.53
2023-02-18T03:48:58.793Z,100507.69
2023-02-18T03:51:27.109Z,100511.81
2023-02-18T03:53:53.676Z,100507.16
2023-02-18T03:56:20.611Z,100510.69
2023-02-18T03:58:47.194Z,100511.56
2023-02-18T04:01:13.691Z,100510.13
2023-02-18T04:03:40.212Z,100517.50
2023-02-18T04:06:07.170Z,100519.47
2023-02-18T04:08:33.906Z,100522.31
2023-02-18T04:11:00.887Z,100524.88
2023-02-18T04:13:27.808Z,100529.81
2023-02-18T04:15:54.066Z,100533.50
2023-02-18T04:18:21.360Z,100528.81
2023-02-18T04:20:47.799Z,100525.41
2023-02-18T04:23:15.183Z,100526.97
2023-02-18T04:25:41.401Z,100531.66
2023-02-18T04:28:10.583Z,100533.75
2023-02-18T04:30:36.799Z,100526.78
2023-02-18T04:33:03.413Z,100533.59
2023-02-18T04:35:30.036Z,100528.91
2023-02-18T04:37:56.685Z,100533.31
2023-02-18T04:40:24.716Z,100536.00
2023-02-18T04:42:51.310Z,100536.28
2023-02-18T04:45:17.828Z,100532.69
2023-02-18T04:47:44.297Z,100542.47
2023-02-18T04:50:10.955Z,100546.03
2023-02-18T04:52:37.699Z,100550.41
2023-02-18T04:55:04.075Z,100538.78
2023-02-18T04:57:30.645Z,100532.69
2023-02-18T04:59:56.906Z,100533.66
2023-02-18T05:02:23.433Z,100530.09
2023-02-18T05:04:49.836Z,100543.16
2023-02-18T05:07:16.403Z,100548.81
2023-02-18T05:09:42.804Z,100549.94
2023-02-18T05:12:09.288Z,100561.72
2023-02-18T05:14:35.509Z,100544.81
2023-02-18T05:17:02.445Z,100558.16
2023-02-18T05:19:28.717Z,100560.97
2023-02-18T05:21:55.202Z,100561.66
2023-02-18T05:24:21.709Z,100570.97
2023-02-18T05:26:48.264Z,100578.19
2023-02-18T05:29:14.546Z,100576.75
2023-02-18T05:31:41.642Z,100583.38
2023-02-18T05:34:08.324Z,100578.38
2023-02-18T05:36:35.018Z,100589.69
2023-02-18T05:39:01.674Z,100586.53
2023-02-18T05:41:28.321Z,100593.75
2023-02-18T05:44:13.490Z,100593.78
2023-02-18T05:46:40.691Z,100598.56
2023-02-18T05:49:07.021Z,100588.31
2023-02-18T05:51:33.619Z,100593.44
2023-02-18T05:54:00.159Z,100583.78
2023-02-18T05:56:26.918Z,100592.13
2023-02-18T05:58:53.197Z,100588.72
2023-02-18T06:01:19.801Z,100587.00
2023-02-18T06:03:46.375Z,100599.09
2023-02-18T06:06:13.327Z,100599.47
2023-02-18T06:08:40.055Z,100594.94
2023-02-18T06:11:06.672Z,100603.16
2023-02-18T06:13:33.199Z,100608.16
2023-02-18T06:15:59.990Z,100609.13
2023-02-18T06:18:26.535Z,100608.75
2023-02-18T06:20:53.041Z,100607.75
2023-02-18T06:23:19.592Z,100617.41
2023-02-18T06:25:49.295Z,100622.41
2023-02-18T06:28:16.599Z,100613.97
2023-02-18T06:30:44.186Z,100621.78
2023-02-18T06:33:10.925Z,100625.06
2023-02-18T06:35:37.823Z,100626.78
2023-02-18T06:38:04.088Z,100637.88
2023-02-18T06:40:30.862Z,100639.06
2023-02-18T06:42:57.177Z,100647.50
2023-02-18T06:45:24.085Z,100644.66
2023-02-18T06:47:50.634Z,100640.41
2023-02-18T06:50:19.012Z,100651.91
2023-02-18T06:52:45.352Z,100651.25
2023-02-18T06:55:12.202Z,100645.47
2023-02-18T06:57:38.509Z,100648.25
2023-02-18T07:00:06.162Z,100655.47
2023-02-18T07:02:32.451Z,100654.75
2023-02-18T07:04:59.427Z,100652.09
2023-02-18T07:07:25.673Z,100651.75
2023-02-18T07:09:52.309Z,100651.88
2023-02-18T07:12:18.489Z,100647.75
2023-02-18T07:14:45.354Z,100640.06
2023-02-18T07:17:11.536Z,100645.13
2023-02-18T07:19:38.368Z,100630.06
2023-02-18T07:22:04.863Z,100632.09
2023-02-18T07:24:31.376Z,100641.41
2023-02-18T07:26:57.668Z,100639.88
2023-02-18T07:29:24.160Z,100637.19
2023-02-18T07:31:50.709Z,100643.75
2023-02-18T07:34:17.405Z,100653.28
2023-02-18T07:36:44.633Z,100642.75
2023-02-18T07:39:11.195Z,100648.59
2023-02-18T07:41:37.895Z,100638.25
2023-02-18T07:44:07.990Z,100628.78
2023-02-18T07:46:34.542Z,100625.84
2023-02-18T07:49:01.209Z,100639.81
2023-02-18T07:51:27.425Z,100631.84
2023-02-18T07:53:54.473Z,100646.06
2023-02-18T07:56:20.681Z,100640.66
2023-02-18T07:58:47.255Z,100636.44
2023-02-18T08:01:14.649Z,100637.28
2023-02-18T08:03:41.837Z,100644.56
2023-02-18T08:06:18.752Z,100642.88
2023-02-18T08:08:46.496Z,100645.00
2023-02-18T08:11:19.260Z,100637.88
2023-02-18T08:13:47.938Z,100625.94
2023-02-18T08:16:15.816Z,100641.59
2023-02-18T08:18:42.891Z,100635.34
2023-02-18T08:21:09.417Z,100631.09
2023-02-18T08:23:36.106Z,100629.22
2023-02-18T08:26:02.447Z,100633.78
2023-02-18T08:28:29.374Z,100627.66
2023-02-18T08:30:55.980Z,100626.31
2023-02-18T08:33:23.116Z,100622.63
2023-02-18T08:35:51.626Z,100631.56
2023-02-18T08:38:19.513Z,100624.47
2023-02-18T08:40:46.757Z,100621.91
2023-02-18T08:43:14.640Z,100622.19
2023-02-18T08:45:42.459Z,100612.34
2023-02-18T08:48:17.119Z,100628.69
2023-02-18T08:50:47.538Z,100618.59
2023-02-18T08:53:14.617Z,100621.59
2023-02-18T08:55:41.036Z,100619.06
2023-02-18T08:58:08.360Z,100610.34
2023-02-18T09:00:35.457Z,100606.78
2023-02-18T09:03:02.595Z,100606.50
2023-02-18T09:05:29.935Z,100615.19
2023-02-18T09:07:57.148Z,100601.81
2023-02-18T09:10:23.874Z,100602.47
2023-02-18T09:12:50.720Z,100601.16
2023-02-18T09:15:17.403Z,100609.56
2023-02-18T09:17:44.374Z,100589.38
2023-02-18T09:20:10.941Z,100595.19
2023-02-18T09:22:37.903Z,100593.03
2023-02-18T09:25:04.744Z,100591.56
2023-02-18T09:27:31.431Z,100590.03
2023-02-18T09:29:57.763Z,100589.72
2023-02-18T09:32:34.429Z,100586.16
2023-02-18T09:35:03.298Z,100588.88
2023-02-18T09:37:30.294Z,100585.94
2023-02-18T09:39:56.611Z,100583.00
2023-02-18T09:42:30.447Z,100588.25
2023-02-18T09:45:01.793Z,100564.78
2023-02-18T09:47:36.867Z,100560.69
2023-02-18T09:50:12.439Z,100565.84
2023-02-18T09:52:39.462Z,100557.06
2023-02-18T09:55:40.354Z,100555.16
2023-02-18T09:58:39.718Z,100557.84
2023-02-18T10:01:15.163Z,100568.81
2023-02-18T10:03:43.639Z,100557.41
2023-02-18T10:06:17.440Z,100549.91
2023-02-18T10:08:46.939Z,100545.56
2023-02-18T10:11:37.170Z,100543.63
2023-02-18T10:14:10.295Z,100550.13
2023-02-18T10:16:36.607Z,100550.41
2023-02-18T10:19:27.801Z,100544.47
2023-02-18T10:21:54.993Z,100535.25
2023-02-18T10:24:24.460Z,100531.31
2023-02-18T10:26:51.453Z,100524.19
2023-02-18T10:29:21.640Z,100523.94
2023-02-18T10:32:27.790Z,100531.03
2023-02-18T10:35:18.991Z,100516.47
2023-02-18T10:38:01.905Z,100504.19
2023-02-18T10:40:42.288Z,100493.41
2023-02-18T10:43:32.153Z,100503.53
2023-02-18T10:46:21.334Z,100497.78
2023-02-18T10:49:06.580Z,100487.41
2023-02-18T10:51:37.203Z,100484.47
2023-02-18T10:54:03.832Z,100480.63
2023-02-18T10:56:48.744Z,100482.69
2023-02-18T10:59:21.574Z,100470.78
2023-02-18T11:02:15.626Z,100466.25
2023-02-18T11:04:45.296Z,100462.19
2023-02-18T11:07:16.125Z,100459.19
2023-02-18T11:09:53.986Z,100459.09
2023-02-18T11:12:28.369Z,100465.75
2023-02-18T11:15:13.375Z,100463.50
2023-02-18T11:17:42.947Z,100456.44
2023-02-18T11:20:33.796Z,100457.75
2023-02-18T11:23:17.507Z,100447.13
2023-02-18T11:26:02.911Z,100449.59
2023-02-18T11:28:46.110Z,100445.66
2023-02-18T11:31:43.348Z,100433.66
2023-02-18T11:34:25.743Z,100417.81
2023-02-18T11:36:53.366Z,100415.44
2023-02-18T11:39:23.739Z,100409.53
2023-02-18T11:42:00.530Z,100401.91
2023-02-18T11:44:27.162Z,100388.81
2023-02-18T11:47:03.211Z,100389.13
2023-02-18T11:49:33.350Z,100378.53
2023-02-18T11:52:22.670Z,100373.28
2023-02-18T11:55:06.798Z,100369.50
2023-02-18T11:57:36.456Z,100361.06
2023-02-18T12:00:20.258Z,100355.84
2023-02-18T12:02:47.039Z,100360.38
2023-02-18T12:05:24.873Z,100352.03
2023-02-18T12:08:10.329Z,100354.28
2023-02-18T12:11:06.376Z,100351.78
2023-02-18T12:13:51.698Z,100343.09
2023-02-18T12:17:13.199Z,100326.94
2023-02-18T12:19:50.847Z,100323.28
2023-02-18T12:22:21.553Z,100322.75
2023-02-18T12:25:39.963Z,100317.31
2023-02-18T12:28:33.424Z,100318.59
2023-02-18T12:31:03.047Z,100310.78
2023-02-18T12:33:38.719Z,100301.28
2023-02-18T12:36:12.968Z,100286.03
2023-02-18T12:39:16.797Z,100294.47
2023-02-18T12:42:03.701Z,100294.06
2023-02-18T12:44:45.560Z,100300.19
2023-02-18T12:47:28.441Z,100295.75
2023-02-18T12:50:14.687Z,100292.59
2023-02-18T12:53:13.351Z,100272.44
2023-02-18T12:55:59.236Z,100263.34
2023-02-18T12:58:54.882Z,100257.50
2023-02-18T13:01:39.169Z,100248.91
2023-02-18T13:04:20.073Z,100243.09
2023-02-18T13:07:05.613Z,100248.50
2023-02-18T13:09:49.821Z,100244.09
2023-02-18T13:12:38.392Z,100244.50
2023-02-18T13:15:11.344Z,100239.25
2023-02-18T13:17:40.730Z,100233.16
2023-02-18T13:20:19.320Z,100239.34
2023-02-18T13:22:49.630Z,100235.34
2023-02-18T13:25:18.146Z,100224.53
2023-02-18T13:28:09.249Z,100218.84
2023-02-18T13:30:52.022Z,100213.13
2023-02-18T13:33:46.705Z,100219.53
2023-02-18T13:36:40.880Z,100213.88
2023-02-18T13:39:18.726Z,100199.69
2023-02-18T13:41:46.688Z,100200.44
2023-02-18T13:44:16.292Z,100200.41
2023-02-18T13:46:55.736Z,100191.75
2023-02-18T13:49:26.166Z,100192.69
2023-02-18T13:51:56.178Z,100189.59
2023-02-18T13:54:31.245Z,100204.34
2023-02-18T13:57:05.685Z,100201.75
2023-02-18T13:59:35.286Z,100205.28
2023-02-18T14:02:35.086Z,100211.25
2023-02-18T14:05:07.888Z,100199.59
2023-02-18T14:07:43.553Z,100209.00
2023-02-18T14:10:16.182Z,100198.50
2023-02-18T14:12:47.597Z,100199.84
2023-02-18T14:15:20.258Z,100186.59
2023-02-18T14:18:12.531Z,100190.84
2023-02-18T14:20:39.199Z,100190.56
2023-02-18T14:23:17.520Z,100187.00
2023-02-18T14:26:05.020Z,100170.16
2023-02-18T14:28:34.491Z,100173.25
2023-02-18T14:31:04.796Z,100163.88
2023-02-18T14:33:35.827Z,100152.06
2023-02-18T14:36:14.622Z,100152.91
2023-02-18T14:39:02.163Z,100139.44
2023-02-18T14:42:13.645Z,100133.28
2023-02-18T14:44:49.077Z,100135.81
2023-02-18T14:47:40.642Z,100123.97
2023-02-18T14:50:14.995Z,100121.50
2023-02-18T14:52:48.769Z,100117.50
2023-02-18T14:55:38.104Z,100110.25
2023-02-18T14:58:24.913Z,100109.78
2023-02-18T15:00:52.215Z,100104.78
2023-02-18T15:03:21.734Z,100095.69
2023-02-18T15:05:51.308Z,100102.38
2023-02-18T15:08:23.489Z,100099.59
2023-02-18T15:11:01.186Z,100110.72
2023-02-18T15:13:31.002Z,100102.66
2023-02-18T15:16:03.760Z,100103.03
2023-02-18T15:18:39.904Z,100102.41
2023-02-18T15:21:16.031Z,100129.22
2023-02-18T15:23:42.810Z,100124.75
2023-02-18T15:26:14.483Z,100124.28
2023-02-18T15:29:24.594Z,100110.66
2023-02-18T15:31:51.735Z,100105.94
2023-02-18T15:34:32.430Z,100085.06
2023-02-18T15:37:00.436Z,100075.78
2023-02-18T15:39:28.157Z,100081.47
2023-02-18T15:41:58.968Z,100079.06
2023-02-18T15:44:28.633Z,100073.56
2023-02-18T15:46:59.343Z,100091.59
2023-02-18T15:49:26.031Z,100089.28
2023-02-18T15:51:58.216Z,100087.97
2023-02-18T15:54:25.302Z,100081.13
2023-02-18T15:56:59.692Z,100076.47
2023-02-18T15:59:26.564Z,100077.03
2023-02-18T16:02:17.918Z,100073.44
2023-02-18T16:04:54.288Z,100074.25
2023-02-18T16:07:24.421Z,100071.97
2023-02-18T16:10:29.245Z,100071.28
2023-02-18T16:13:00.788Z,100060.09
2023-02-18T16:15:37.479Z,100055.78
2023-02-18T16:18:04.627Z,100063.75
2023-02-18T16:20:37.810Z,100048.50
2023-02-18T16:23:12.344Z,100054.59
2023-02-18T16:25:48.065Z,100081.13
2023-02-18T16:28:34.777Z,100081.44
2023-02-18T16:31:01.731Z,100080.03
2023-02-18T16:33:28.094Z,100063.72
2023-02-18T16:35:57.041Z,100068.97
2023-02-18T16:38:24.405Z,100062.72
2023-02-18T16:40:53.684Z,100069.16
2023-02-18T16:43:26.764Z,100081.22
2023-02-18T16:45:57.381Z,100092.03
2023-02-18T16:48:31.560Z,100097.66
2023-02-18T16:51:38.652Z,100105.31
2023-02-18T16:54:05.351Z,100107.28
2023-02-18T16:56:34.903Z,100116.78
2023-02-18T16:59:01.214Z,100117.19
2023-02-18T17:01:30.963Z,100132.53
2023-02-18T17:03:59.500Z,100146.47
2023-02-18T17:06:26.832Z,100144.31
2023-02-18T17:08:53.746Z,100152.00
2023-02-18T17:11:20.645Z,100158.09
2023-02-18T17:13:49.342Z,100165.19
2023-02-18T17:16:16.112Z,100173.94
2023-02-18T17:18:43.071Z,100178.22
2023-02-18T17:21:18.155Z,100184.03
2023-02-18T17:23:45.284Z,100183.44
2023-02-18T17:26:19.802Z,100192.78
2023-02-18T17:28:47.098Z,100210.25
2023-02-18T17:31:36.258Z,100228.25
2023-02-18T17:34:08.883Z,100231.53
2023-02-18T17:36:35.404Z,100243.28
2023-02-18T17:39:05.088Z,100251.66
2023-02-18T17:41:31.992Z,100247.38
2023-02-18T17:43:58.520Z,100255.47
2023-02-18T17:46:25.143Z,100262.41
2023-02-18T17:48:51.590Z,100257.59
2023-02-18T17:51:29.031Z,100255.63
2023-02-18T17:53:55.629Z,100265.50
2023-02-18T17:56:24.760Z,100285.47
2023-02-18T17:58:51.481Z,100297.28
2023-02-18T18:01:20.261Z,100303.44
2023-02-18T18:03:46.576Z,100310.22
2023-02-18T18:06:18.855Z,100312.84
2023-02-18T18:08:45.877Z,100333.34
2023-02-18T18:11:16.584Z,100336.91
2023-02-18T18:13:42.991Z,100341.16
2023-02-18T18:16:12.014Z,100353.53
2023-02-18T18:18:38.447Z,100345.81
2023-02-18T18:21:05.966Z,100354.44
2023-02-18T18:23:33.224Z,100352.94
2023-02-18T18:26:00.159Z,100355.22
2023-02-18T18:28:27.049Z,100365.09
2023-02-18T18:30:55.443Z,100372.72
2023-02-18T18:33:26.181Z,100374.03
2023-02-18T18:35:55.019Z,100374.63
2023-02-18T18:38:23.796Z,100385.31
2023-02-18T18:40:51.968Z,100394.38
2023-02-18T18:43:27.176Z,100401.00
2023-02-18T18:45:54.710Z,100401.19
2023-02-18T18:48:22.387Z,100398.06
2023-02-18T18:50:50.621Z,100405.78
2023-02-18T18:53:20.077Z,100400.03
2023-02-18T18:55:48.552Z,100406.50
2023-02-18T18:58:19.987Z,100415.63
2023-02-18T19:00:50.127Z,100414.53
2023-02-18T19:03:16.914Z,100413.75
2023-02-18T19:05:45.498Z,100403.16
2023-02-18T19:08:13.229Z,100413.34
2023-02-18T19:10:42.244Z,100434.53
2023-02-18T19:13:19.028Z,100446.75
2023-02-18T19:15:47.014Z,100448.44
2023-02-18T19:18:18.350Z,100445.94
2023-02-18T19:20:46.959Z,100436.34
2023-02-18T19:23:13.789Z,100435.22
2023-02-18T19:25:41.347Z,100442.91
2023-02-18T19:28:08.414Z,100441.78
2023-02-18T19:30:35.899Z,100449.22
2023-02-18T19:33:04.438Z,100442.72
2023-02-18T19:35:31.691Z,100450.47
2023-02-18T19:37:58.429Z,100451.34
2023-02-18T19:40:28.139Z,100452.91
2023-02-18T19:42:54.521Z,100463.22
2023-02-18T19:45:22.040Z,100459.88
2023-02-18T19:47:53.491Z,100462.50
2023-02-18T19:50:20.786Z,100476.00
2023-02-18T19:52:47.992Z,100484.09
2023-02-18T19:55:14.501Z,100484.28
2023-02-18T19:57:40.667Z,100487.31
2023-02-18T20:00:08.417Z,100478.13
2023-02-18T20:02:39.576Z,100493.75
2023-02-18T20:05:08.855Z,100486.00
2023-02-18T20:07:35.836Z,100488.44
2023-02-18T20:10:06.832Z,100488.50
2023-02-18T20:12:33.128Z,100505.41
2023-02-18T20:14:59.777Z,100497.28
2023-02-18T20:17:26.119Z,100509.03
2023-02-18T20:19:52.694Z,100509.38
2023-02-18T20:22:19.157Z,100511.06
2023-02-18T20:24:46.686Z,100516.72
2023-02-18T20:27:13.169Z,100519.53
2023-02-18T20:29:40.034Z,100509.69
2023-02-18T20:32:07.871Z,100505.56
2023-02-18T20:34:34.543Z,100515.72
2023-02-18T20:37:01.171Z,100528.59
2023-02-18T20:39:28.340Z,100524.34
2023-02-18T20:41:54.778Z,100526.94
2023-02-18T20:44:23.661Z,100519.25
2023-02-18T20:46:50.154Z,100537.41
2023-02-18T20:49:18.714Z,100539.63
2023-02-18T20:51:44.942Z,100544.66
2023-02-18T20:54:15.110Z,100545.19
2023-02-18T20:56:43.107Z,100535.31
2023-02-18T20:59:14.349Z,100546.47
2023-02-18T21:01:41.676Z,100545.00
2023-02-18T21:04:10.904Z,100552.47
2023-02-18T21:06:37.708Z,100541.22
2023-02-18T21:09:04.921Z,100540.38
2023-02-18T21:11:31.580Z,100542.09
2023-02-18T21:13:58.151Z,100548.56
2023-02-18T21:16:26.860Z,100543.41
2023-02-18T21:18:53.871Z,100545.63
2023-02-18T21:21:22.851Z,100541.47
2023-02-18T21:23:50.510Z,100543.53
2023-02-18T21:26:20.366Z,100552.69
2023-02-18T21:28:52.607Z,100557.72
2023-02-18T21:31:31.331Z,100572.25
2023-02-18T21:33:58.394Z,100572.13
2023-02-18T21:36:26.060Z,100571.75
2023-02-18T21:39:01.798Z,100580.19
2023-02-18T21:41:29.137Z,100583.47
2023-02-18T21:43:56.584Z,100589.09
2023-02-18T21:46:31.629Z,100586.06
2023-02-18T21:49:01.623Z,100593.16
2023-02-18T21:51:48.052Z,100588.50
2023-02-18T21:54:16.115Z,100586.66
2023-02-18T21:56:42.916Z,100589.34
2023-02-18T21:59:10.210Z,100592.75
2023-02-18T22:01:37.473Z,100587.97
2023-02-18T22:04:04.481Z,100591.03
2023-02-18T22:06:30.756Z,100599.59
2023-02-18T22:09:00.396Z,100602.28
2023-02-18T22:11:28.040Z,100595.91
2023-02-18T22:13:54.743Z,100603.97
2023-02-18T22:16:21.282Z,100610.91
2023-02-18T22:18:49.391Z,100619.84
2023-02-18T22:21:15.910Z,100617.16
2023-02-18T22:23:42.448Z,100621.19
2023-02-18T22:26:09.580Z,100620.56
2023-02-18T22:28:36.292Z,100618.38
2023-02-18T22:31:10.720Z,100619.94
2023-02-18T22:33:38.530Z,100617.75
2023-02-18T22:36:06.868Z,100613.34
2023-02-18T22:38:35.484Z,100613.09
2023-02-18T22:41:06.926Z,100617.88
2023-02-18T22:43:34.154Z,100608.81
2023-02-18T22:46:13.094Z,100605.88
2023-02-18T22:48:40.520Z,100610.28
2023-02-18T22:51:21.857Z,100604.13
2023-02-18T22:53:48.636Z,100598.88
2023-02-18T22:56:17.800Z,100591.66
2023-02-18T22:58:46.801Z,100613.19
2023-02-18T23:01:23.429Z,100609.25
2023-02-18T23:03:52.104Z,100616.81
2023-02-18T23:06:20.183Z,100611.31
2023-02-18T23:08:47.652Z,100608.50
2023-02-18T23:11:16.911Z,100605.19
2023-02-18T23:13:44.444Z,100616.09
2023-02-18T23:16:12.986Z,100620.38
2023-02-18T23:18:39.973Z,100630.75
2023-02-18T23:21:17.135Z,100619.00
2023-02-18T23:23:45.356Z,100623.91
2023-02-18T23:26:12.819Z,100627.84
2023-02-18T23:28:49.014Z,100629.53
2023-02-18T23:31:26.514Z,100638.34
2023-02-18T23:33:56.317Z,100646.41
2023-02-18T23:36:25.912Z,100638.34
2023-02-18T23:39:10.087Z,100642.25
2023-02-18T23:41:36.826Z,100635.66
2023-02-18T23:44:05.081Z,100638.34
2023-02-18T23:46:31.401Z,100629.16
2023-02-18T23:48:58.680Z,100634.69
2023-02-18T23:51:25.277Z,100634.19
2023-02-18T23:53:52.191Z,100630.78
2023-02-18T23:56:23.804Z,100622.31
2023-02-18T23:59:00.152Z,100627.09
